createdAt,value
2023-04-26T00:01:23.094Z,100204.94
2023-04-26T00:03:52.522Z,100189.28
2023-04-26T00:06:21.840Z,100316.47
2023-04-26T00:08:51.498Z,100239.28
2023-04-26T00:11:20.968Z,100311.13
2023-04-26T00:13:51.635Z,100271.16
2023-04-26T00:16:21.498Z,100336.97
2023-04-26T00:18:51.746Z,100260.66
2023-04-26T00:21:21.116Z,100182.50
2023-04-26T00:23:50.381Z,100323.44
2023-04-26T00:26:38.456Z,100322.44
2023-04-26T00:29:09.204Z,100299.88
2023-04-26T00:31:55.483Z,100314.44
2023-04-26T00:34:24.849Z,100285.94
2023-04-26T00:36:54.029Z,100325.59
2023-04-26T00:39:23.588Z,100332.53
2023-04-26T00:41:52.866Z,100267.44
2023-04-26T00:44:23.798Z,100209.34
2023-04-26T00:46:54.898Z,100214.47
2023-04-26T00:49:26.015Z,100131.50
2023-04-26T00:51:56.116Z,100308.00
2023-04-26T00:54:43.566Z,100319.97
2023-04-26T00:57:31.466Z,100322.66
2023-04-26T01:00:02.158Z,100327.91
2023-04-26T01:02:50.048Z,100333.06
2023-04-26T01:05:38.084Z,100314.00
2023-04-26T01:08:08.282Z,100314.72
2023-04-26T01:10:38.144Z,100311.06
2023-04-26T01:13:07.240Z,100317.91
2023-04-26T01:15:56.740Z,100316.75
2023-04-26T01:19:01.246Z,100299.16
2023-04-26T01:21:30.478Z,100280.63
2023-04-26T01:24:10.976Z,100291.69
2023-04-26T01:26:58.298Z,100314.00
2023-04-26T01:29:29.216Z,100318.94
2023-04-26T01:31:58.294Z,100314.50
2023-04-26T01:34:27.420Z,100309.31
2023-04-26T01:37:31.951Z,100309.28
2023-04-26T01:40:02.651Z,100321.53
2023-04-26T01:42:31.802Z,100323.28
2023-04-26T01:45:01.036Z,100319.91
2023-04-26T01:47:30.250Z,100315.69
2023-04-26T01:50:35.144Z,100316.72
2023-04-26T01:53:04.318Z,100317.63
2023-04-26T01:55:35.972Z,100318.59
2023-04-26T01:58:05.244Z,100316.19
2023-04-26T02:00:52.870Z,100308.59
2023-04-26T02:03:22.170Z,100323.38
2023-04-26T02:05:51.414Z,100323.38
2023-04-26T02:08:20.478Z,100290.56
2023-04-26T02:10:51.152Z,100338.31
2023-04-26T02:13:21.144Z,100336.75
2023-04-26T02:15:51.747Z,100273.66
2023-04-26T02:18:23.049Z,100327.31
2023-04-26T02:20:52.210Z,100315.28
2023-04-26T02:23:21.349Z,100325.75
2023-04-26T02:26:09.293Z,100334.38
2023-04-26T02:28:56.633Z,100290.19
2023-04-26T02:31:43.977Z,100331.59
2023-04-26T02:34:13.991Z,100344.50
2023-04-26T02:36:43.042Z,100350.66
2023-04-26T02:39:12.515Z,100338.63
2023-04-26T02:41:43.069Z,100343.84
2023-04-26T02:44:12.204Z,100343.91
2023-04-26T02:46:41.413Z,100348.41
2023-04-26T02:49:10.504Z,100311.88
2023-04-26T02:51:56.790Z,100330.94
2023-04-26T02:54:26.291Z,100330.66
2023-04-26T02:56:57.046Z,100320.09
2023-04-26T02:59:44.893Z,100357.19
2023-04-26T03:02:32.772Z,100364.09
2023-04-26T03:05:20.477Z,100358.84
2023-04-26T03:07:50.090Z,100296.69
2023-04-26T03:10:55.088Z,100209.44
2023-04-26T03:13:26.636Z,100356.22
2023-04-26T03:15:55.863Z,100362.22
2023-04-26T03:18:25.010Z,100372.53
2023-04-26T03:20:54.495Z,100355.94
2023-04-26T03:23:25.900Z,100374.03
2023-04-26T03:25:55.222Z,100382.66
2023-04-26T03:28:24.471Z,100367.69
2023-04-26T03:31:13.499Z,100371.94
2023-04-26T03:34:01.255Z,100377.84
2023-04-26T03:36:48.840Z,100375.84
2023-04-26T03:39:18.257Z,100374.00
2023-04-26T03:41:47.430Z,100373.00
2023-04-26T03:44:16.619Z,100343.44
2023-04-26T03:46:47.284Z,100376.19
2023-04-26T03:49:16.575Z,100318.88
2023-04-26T03:52:04.573Z,100301.41
2023-04-26T03:54:33.934Z,100353.13
2023-04-26T03:57:03.567Z,100378.19
2023-04-26T03:59:33.318Z,100354.53
2023-04-26T04:02:05.100Z,100276.81
2023-04-26T04:04:34.838Z,100362.97
2023-04-26T04:07:04.256Z,100249.84
2023-04-26T04:09:33.458Z,100349.06
2023-04-26T04:12:03.446Z,100361.09
2023-04-26T04:14:33.008Z,100267.81
2023-04-26T04:17:05.468Z,100372.38
2023-04-26T04:19:34.801Z,100326.19
2023-04-26T04:22:08.181Z,100230.22
2023-04-26T04:24:38.786Z,100360.34
2023-04-26T04:27:24.995Z,100231.28
2023-04-26T04:29:54.363Z,100319.75
2023-04-26T04:32:25.581Z,100364.69
2023-04-26T04:34:54.952Z,100241.72
2023-04-26T04:37:46.032Z,100357.91
2023-04-26T04:40:15.609Z,100122.75
2023-04-26T04:42:47.195Z,100298.47
2023-04-26T04:45:19.405Z,100349.00
2023-04-26T04:47:50.447Z,100379.31
2023-04-26T04:50:19.795Z,100355.09
2023-04-26T04:52:49.289Z,100351.81
2023-04-26T04:55:22.701Z,100355.25
2023-04-26T04:57:52.601Z,100290.47
2023-04-26T05:00:26.667Z,100327.00
2023-04-26T05:02:57.942Z,100329.97
2023-04-26T05:05:27.910Z,100355.47
2023-04-26T05:08:14.133Z,100275.97
2023-04-26T05:10:44.354Z,100283.53
2023-04-26T05:13:34.813Z,100342.72
2023-04-26T05:16:04.215Z,100150.53
2023-04-26T05:18:36.580Z,100347.22
2023-04-26T05:21:08.943Z,100320.16
2023-04-26T05:23:38.214Z,100351.84
2023-04-26T05:26:08.111Z,100318.88
2023-04-26T05:28:55.953Z,100352.72
2023-04-26T05:31:25.267Z,100349.69
2023-04-26T05:34:01.313Z,100354.44
2023-04-26T05:36:33.399Z,100337.63
2023-04-26T05:39:22.572Z,100340.06
2023-04-26T05:41:51.904Z,100351.34
2023-04-26T05:44:24.185Z,100330.25
2023-04-26T05:47:10.099Z,100218.81
2023-04-26T05:49:45.907Z,100331.88
2023-04-26T05:52:15.024Z,100331.75
2023-04-26T05:57:59.301Z,100339.88
2023-04-26T06:00:48.161Z,100318.13
2023-04-26T06:03:17.599Z,100282.84
2023-04-26T06:05:57.156Z,100349.31
2023-04-26T06:08:46.172Z,100341.72
2023-04-26T06:11:22.591Z,100346.91
2023-04-26T06:13:57.635Z,100327.88
2023-04-26T06:16:46.496Z,100281.56
2023-04-26T06:19:42.503Z,100350.13
2023-04-26T06:22:13.289Z,100308.66
2023-04-26T06:24:43.534Z,100241.47
2023-04-26T06:27:29.788Z,100361.88
2023-04-26T06:30:17.661Z,100341.22
2023-04-26T06:32:49.526Z,100288.94
2023-04-26T06:35:27.851Z,100258.38
2023-04-26T06:37:59.070Z,100322.03
2023-04-26T06:40:28.482Z,100138.81
2023-04-26T06:42:58.560Z,100334.22
2023-04-26T06:45:47.250Z,100354.47
2023-04-26T06:48:16.688Z,100310.25
2023-04-26T06:51:03.805Z,100324.56
2023-04-26T06:53:34.505Z,100322.81
2023-04-26T06:56:21.046Z,100312.91
2023-04-26T06:59:19.457Z,100323.81
2023-04-26T07:02:07.138Z,100325.06
2023-04-26T07:04:37.584Z,100201.59
2023-04-26T07:07:07.068Z,100307.66
2023-04-26T07:09:56.129Z,100314.03
2023-04-26T07:12:25.390Z,100186.16
2023-04-26T07:14:54.698Z,100211.38
2023-04-26T07:17:23.814Z,100295.34
2023-04-26T07:20:12.778Z,100332.34
2023-04-26T07:22:41.978Z,100233.28
2023-04-26T07:25:12.692Z,100217.66
2023-04-26T07:27:42.029Z,100231.34
2023-04-26T07:30:12.541Z,100214.91
2023-04-26T07:32:41.750Z,100337.72
2023-04-26T07:35:29.478Z,100328.69
2023-04-26T07:38:20.028Z,100327.25
2023-04-26T07:40:51.014Z,100308.34
2023-04-26T07:43:38.324Z,100179.16
2023-04-26T07:46:07.723Z,100319.88
2023-04-26T07:48:55.360Z,100327.75
2023-04-26T07:51:42.860Z,100332.13
2023-04-26T07:54:11.989Z,100336.94
2023-04-26T07:56:42.694Z,100297.72
2023-04-26T07:59:12.015Z,100328.72
2023-04-26T08:01:59.493Z,100336.97
2023-04-26T08:04:39.313Z,100336.63
2023-04-26T08:07:08.526Z,100346.19
2023-04-26T08:09:55.903Z,100347.34
2023-04-26T08:12:44.708Z,100327.25
2023-04-26T08:15:14.732Z,100342.09
2023-04-26T08:17:43.878Z,100351.53
2023-04-26T08:20:13.750Z,100343.94
2023-04-26T08:22:42.889Z,100337.72
2023-04-26T08:25:30.943Z,100375.56
2023-04-26T08:28:05.435Z,100353.53
2023-04-26T08:30:34.643Z,100339.06
2023-04-26T08:33:21.952Z,100336.38
2023-04-26T08:35:51.234Z,100314.66
2023-04-26T08:38:23.017Z,100336.91
2023-04-26T08:40:54.353Z,100349.22
2023-04-26T08:43:25.403Z,100348.94
2023-04-26T08:45:54.922Z,100371.97
2023-04-26T08:48:25.215Z,100351.06
2023-04-26T08:51:12.897Z,100348.66
2023-04-26T08:53:43.599Z,100362.31
2023-04-26T08:56:31.267Z,100358.25
2023-04-26T08:59:15.057Z,100354.69
2023-04-26T09:01:46.223Z,100346.94
2023-04-26T09:04:15.580Z,100317.66
2023-04-26T09:06:46.161Z,100351.44
2023-04-26T09:09:34.258Z,100297.19
2023-04-26T09:12:03.849Z,100322.13
2023-04-26T09:14:53.598Z,100344.28
2023-04-26T09:17:32.949Z,100340.59
2023-04-26T09:20:20.013Z,100351.44
2023-04-26T09:23:25.865Z,100357.38
2023-04-26T09:25:57.332Z,100347.38
2023-04-26T09:28:26.665Z,100345.34
2023-04-26T09:31:18.215Z,100338.44
2023-04-26T09:34:00.684Z,100347.06
2023-04-26T09:36:30.907Z,100346.13
2023-04-26T09:39:00.169Z,100337.69
2023-04-26T09:41:45.368Z,100320.75
2023-04-26T09:44:24.832Z,100326.91
2023-04-26T09:47:03.478Z,100328.94
2023-04-26T09:50:09.292Z,100346.16
2023-04-26T09:53:06.137Z,100371.88
2023-04-26T09:55:36.009Z,100364.78
2023-04-26T09:58:11.399Z,100353.56
2023-04-26T10:01:07.917Z,100367.06
2023-04-26T10:03:39.122Z,100356.97
2023-04-26T10:06:09.249Z,100348.25
2023-04-26T10:08:39.156Z,100366.75
2023-04-26T10:11:11.045Z,100352.09
2023-04-26T10:13:59.354Z,100369.44
2023-04-26T10:16:28.494Z,100324.78
2023-04-26T10:18:59.216Z,100351.03
2023-04-26T10:21:35.688Z,100373.19
2023-04-26T10:24:05.164Z,100363.16
2023-04-26T10:26:52.391Z,100377.56
2023-04-26T10:29:22.167Z,100366.50
2023-04-26T10:32:29.029Z,100356.81
2023-04-26T10:35:14.342Z,100359.97
2023-04-26T10:38:10.892Z,100363.38
2023-04-26T10:40:41.272Z,100376.41
2023-04-26T10:43:33.332Z,100372.59
2023-04-26T10:46:36.333Z,100371.28
2023-04-26T10:49:26.630Z,100377.69
2023-04-26T10:52:13.982Z,100371.00
2023-04-26T10:54:57.216Z,100376.53
2023-04-26T10:57:47.655Z,100370.75
2023-04-26T11:00:37.984Z,100369.97
2023-04-26T11:03:09.875Z,100386.03
2023-04-26T11:05:50.787Z,100401.06
2023-04-26T11:08:22.668Z,100398.69
2023-04-26T11:11:09.373Z,100394.88
2023-04-26T11:13:39.706Z,100390.16
2023-04-26T11:16:30.726Z,100393.69
2023-04-26T11:19:17.806Z,100390.75
2023-04-26T11:21:46.969Z,100376.13
2023-04-26T11:24:19.058Z,100383.16
2023-04-26T11:26:53.849Z,100409.22
2023-04-26T11:29:23.205Z,100409.75
2023-04-26T11:31:56.722Z,100405.84
2023-04-26T11:34:33.927Z,100424.13
2023-04-26T11:37:05.253Z,100436.97
2023-04-26T11:39:53.338Z,100438.78
2023-04-26T11:42:27.530Z,100444.84
2023-04-26T11:45:16.635Z,100451.53
2023-04-26T11:48:04.706Z,100444.94
2023-04-26T11:50:35.264Z,100448.91
2023-04-26T11:53:06.969Z,100461.34
2023-04-26T11:55:38.122Z,100449.25
2023-04-26T11:58:25.720Z,100444.56
2023-04-26T12:01:13.096Z,100450.09
2023-04-26T12:03:42.383Z,100442.13
2023-04-26T12:06:29.548Z,100449.34
2023-04-26T12:08:59.368Z,100444.41
2023-04-26T12:11:29.929Z,100461.53
2023-04-26T12:14:01.862Z,100469.84
2023-04-26T12:16:31.230Z,100470.50
2023-04-26T12:19:00.557Z,100464.31
2023-04-26T12:21:30.899Z,100482.19
2023-04-26T12:24:00.263Z,100477.97
2023-04-26T12:26:46.270Z,100486.91
2023-04-26T12:29:15.377Z,100492.28
2023-04-26T12:31:44.885Z,100456.97
2023-04-26T12:34:14.167Z,100477.81
2023-04-26T12:37:01.738Z,100490.16
2023-04-26T12:39:49.269Z,100497.38
2023-04-26T12:42:36.682Z,100505.53
2023-04-26T12:45:24.866Z,100511.16
2023-04-26T12:47:56.878Z,100493.25
2023-04-26T12:50:26.286Z,100501.47
2023-04-26T12:53:16.118Z,100520.16
2023-04-26T12:55:46.434Z,100508.16
2023-04-26T12:58:37.079Z,100496.31
2023-04-26T13:01:06.346Z,100508.16
2023-04-26T13:03:35.796Z,100523.84
2023-04-26T13:06:05.407Z,100520.41
2023-04-26T13:08:52.779Z,100521.44
2023-04-26T13:11:58.425Z,100469.13
2023-04-26T13:14:29.148Z,100527.88
2023-04-26T13:16:58.283Z,100496.75
2023-04-26T13:20:04.861Z,100519.81
2023-04-26T13:22:35.642Z,100492.16
2023-04-26T13:25:26.868Z,100531.56
2023-04-26T13:27:56.226Z,100493.97
2023-04-26T13:30:38.826Z,100529.00
2023-04-26T13:33:08.798Z,100541.75
2023-04-26T13:35:42.004Z,100537.59
2023-04-26T13:38:33.031Z,100543.16
2023-04-26T13:41:03.050Z,100541.63
2023-04-26T13:43:32.374Z,100528.91
2023-04-26T13:46:26.633Z,100543.84
2023-04-26T13:49:01.347Z,100545.78
2023-04-26T13:51:31.240Z,100543.34
2023-04-26T13:54:01.306Z,100551.38
2023-04-26T13:56:31.085Z,100552.41
2023-04-26T13:59:06.043Z,100552.41
2023-04-26T14:01:37.728Z,100562.13
2023-04-26T14:04:12.673Z,100561.38
2023-04-26T14:06:44.350Z,100563.16
2023-04-26T14:09:19.504Z,100545.09
2023-04-26T14:12:10.451Z,100579.78
2023-04-26T14:14:42.248Z,100578.88
2023-04-26T14:17:14.529Z,100577.06
2023-04-26T14:19:43.991Z,100571.94
2023-04-26T14:22:30.786Z,100576.41
2023-04-26T14:25:03.004Z,100565.47
2023-04-26T14:28:10.321Z,100576.88
2023-04-26T14:30:59.691Z,100580.56
2023-04-26T14:33:54.596Z,100582.59
2023-04-26T14:36:23.999Z,100583.75
2023-04-26T14:38:56.462Z,100582.22
2023-04-26T14:41:26.109Z,100589.47
2023-04-26T14:44:10.543Z,100556.72
2023-04-26T14:46:39.957Z,100577.78
2023-04-26T14:49:10.863Z,100584.13
2023-04-26T14:51:39.970Z,100582.59
2023-04-26T14:54:12.209Z,100579.31
2023-04-26T14:56:48.540Z,100584.03
2023-04-26T14:59:22.309Z,100504.63
2023-04-26T15:01:55.285Z,100511.78
2023-04-26T15:04:26.398Z,100573.31
2023-04-26T15:07:24.924Z,100597.84
2023-04-26T15:10:01.130Z,100623.44
2023-04-26T15:12:33.624Z,100492.56
2023-04-26T15:15:03.169Z,100622.03
2023-04-26T15:17:50.768Z,100597.69
2023-04-26T15:20:38.581Z,100554.47
2023-04-26T15:25:53.073Z,100489.78
2023-04-26T15:28:22.483Z,100560.31
2023-04-26T15:30:51.735Z,100484.78
2023-04-26T15:33:37.745Z,100539.56
2023-04-26T15:36:09.476Z,100423.56
2023-04-26T15:38:56.111Z,100572.56
2023-04-26T15:41:25.528Z,100540.66
2023-04-26T15:44:30.578Z,100573.75
2023-04-26T15:46:59.515Z,100570.44
2023-04-26T15:49:46.735Z,100518.06
2023-04-26T15:52:38.948Z,100592.63
2023-04-26T15:55:10.934Z,100506.34
2023-04-26T15:58:00.738Z,100598.09
2023-04-26T16:00:32.804Z,100471.66
2023-04-26T16:03:02.701Z,100581.81
2023-04-26T16:05:32.705Z,100519.56
2023-04-26T16:08:09.236Z,100482.31
2023-04-26T16:10:58.037Z,100506.63
2023-04-26T16:13:27.536Z,100581.38
2023-04-26T16:15:57.212Z,100449.66
2023-04-26T16:18:29.344Z,100383.00
2023-04-26T16:21:23.002Z,100559.09
2023-04-26T16:24:11.986Z,100612.94
2023-04-26T16:26:42.851Z,100563.66
2023-04-26T16:29:14.789Z,100591.47
2023-04-26T16:31:44.732Z,100622.75
2023-04-26T16:34:14.161Z,100531.72
2023-04-26T16:36:43.548Z,100615.19
2023-04-26T16:39:16.555Z,100511.06
2023-04-26T16:41:47.473Z,100643.13
2023-04-26T16:44:19.498Z,100648.38
2023-04-26T16:46:51.735Z,100555.50
2023-04-26T16:49:23.229Z,100549.44
2023-04-26T16:52:10.697Z,100637.16
2023-04-26T16:54:39.968Z,100552.16
2023-04-26T16:57:14.556Z,100659.03
2023-04-26T16:59:43.844Z,100593.91
2023-04-26T17:02:15.390Z,100623.31
2023-04-26T17:05:03.777Z,100627.75
2023-04-26T17:07:33.135Z,100636.50
2023-04-26T17:10:05.993Z,100560.13
2023-04-26T17:12:38.468Z,100490.75
2023-04-26T17:15:09.127Z,100530.69
2023-04-26T17:17:56.825Z,100627.00
2023-04-26T17:20:26.126Z,100525.47
2023-04-26T17:22:55.265Z,100630.53
2023-04-26T17:25:42.741Z,100631.38
2023-04-26T17:28:14.659Z,100525.47
2023-04-26T17:30:44.048Z,100535.88
2023-04-26T17:33:13.364Z,100505.47
2023-04-26T17:35:59.543Z,100510.59
2023-04-26T17:38:28.762Z,100579.06
2023-04-26T17:41:17.982Z,100487.84
2023-04-26T17:43:48.758Z,100512.25
2023-04-26T17:46:36.171Z,100476.47
2023-04-26T17:49:05.449Z,100557.09
2023-04-26T17:51:34.772Z,100476.47
2023-04-26T17:54:03.986Z,100456.41
2023-04-26T17:56:33.696Z,100650.69
2023-04-26T17:59:39.640Z,100634.00
2023-04-26T18:02:09.083Z,100596.00
2023-04-26T18:04:38.622Z,100593.44
2023-04-26T18:07:08.168Z,100434.81
2023-04-26T18:09:37.421Z,100616.16
2023-04-26T18:12:25.832Z,100659.56
2023-04-26T18:15:13.468Z,100655.22
2023-04-26T18:17:42.866Z,100545.91
2023-04-26T18:20:13.568Z,100618.00
2023-04-26T18:22:43.057Z,100603.22
2023-04-26T18:25:12.388Z,100578.94
2023-04-26T18:27:41.711Z,100427.91
2023-04-26T18:30:30.840Z,100667.31
2023-04-26T18:33:00.140Z,100661.19
2023-04-26T18:35:29.414Z,100667.13
2023-04-26T18:37:58.603Z,100529.25
2023-04-26T18:40:27.955Z,100506.69
2023-04-26T18:42:57.141Z,100484.97
2023-04-26T18:45:26.394Z,100664.66
2023-04-26T18:47:57.145Z,100622.22
2023-04-26T18:50:26.499Z,100638.75
2023-04-26T18:52:55.773Z,100543.22
2023-04-26T18:55:26.324Z,100465.16
2023-04-26T18:57:55.513Z,100509.59
2023-04-26T19:00:24.896Z,100662.31
2023-04-26T19:02:55.287Z,100671.94
2023-04-26T19:05:26.027Z,100653.66
2023-04-26T19:07:55.292Z,100661.53
2023-04-26T19:10:59.637Z,100664.13
2023-04-26T19:13:28.736Z,100582.59
2023-04-26T19:16:14.849Z,100624.94
2023-04-26T19:19:02.569Z,100658.78
2023-04-26T19:21:33.633Z,100643.16
2023-04-26T19:24:02.767Z,100486.06
2023-04-26T19:26:31.960Z,100411.44
2023-04-26T19:29:01.219Z,100466.94
2023-04-26T19:31:30.768Z,100495.50
2023-04-26T19:33:59.985Z,100639.59
2023-04-26T19:36:47.485Z,100560.63
2023-04-26T19:39:18.323Z,100496.34
2023-04-26T19:41:47.512Z,100491.06
2023-04-26T19:44:16.682Z,100605.69
2023-04-26T19:47:21.291Z,100645.53
2023-04-26T19:50:09.749Z,100651.66
2023-04-26T19:52:38.927Z,100651.72
2023-04-26T19:55:10.854Z,100499.94
2023-04-26T19:57:40.318Z,100493.84
2023-04-26T20:00:30.596Z,100642.28
2023-04-26T20:03:00.188Z,100451.47
2023-04-26T20:05:29.650Z,100650.88
2023-04-26T20:08:34.203Z,100631.66
2023-04-26T20:11:06.215Z,100471.16
2023-04-26T20:13:52.105Z,100629.97
2023-04-26T20:16:38.190Z,100536.31
2023-04-26T20:19:07.733Z,100643.97
2023-04-26T20:21:56.420Z,100626.50
2023-04-26T20:24:28.232Z,100512.03
2023-04-26T20:27:15.617Z,100622.09
2023-04-26T20:29:44.789Z,100425.34
2023-04-26T20:32:30.784Z,100475.50
2023-04-26T20:34:59.996Z,100461.50
2023-04-26T20:37:29.225Z,100613.25
2023-04-26T20:39:58.351Z,100486.69
2023-04-26T20:42:29.682Z,100513.59
2023-04-26T20:45:18.416Z,100620.22
2023-04-26T20:47:47.688Z,100621.97
2023-04-26T20:50:16.839Z,100638.53
2023-04-26T20:52:46.871Z,100483.22
2023-04-26T20:55:16.212Z,100618.44
2023-04-26T20:57:46.888Z,100602.94
2023-04-26T21:00:17.407Z,100571.59
2023-04-26T21:02:47.017Z,100569.88
2023-04-26T21:05:35.014Z,100621.97
2023-04-26T21:08:04.303Z,100497.16
2023-04-26T21:10:33.405Z,100622.13
2023-04-26T21:13:04.055Z,100544.09
2023-04-26T21:15:33.293Z,100355.03
2023-04-26T21:18:19.456Z,100508.56
2023-04-26T21:20:48.581Z,100618.81
2023-04-26T21:23:17.708Z,100578.88
2023-04-26T21:25:48.758Z,100616.28
2023-04-26T21:28:19.510Z,100615.44
2023-04-26T21:31:06.906Z,100490.56
2023-04-26T21:33:36.793Z,100487.19
2023-04-26T21:36:06.836Z,100607.72
2023-04-26T21:38:54.096Z,100611.19
2023-04-26T21:41:59.899Z,100622.56
2023-04-26T21:44:30.560Z,100638.22
2023-04-26T21:46:59.826Z,100623.38
2023-04-26T21:49:47.099Z,100620.81
2023-04-26T21:52:16.563Z,100626.03
2023-04-26T21:54:45.702Z,100587.84
2023-04-26T21:57:33.174Z,100625.19
2023-04-26T22:00:05.186Z,100620.88
2023-04-26T22:02:34.557Z,100509.00
2023-04-26T22:05:04.190Z,100549.69
2023-04-26T22:07:51.296Z,100635.59
2023-04-26T22:10:20.623Z,100622.50
2023-04-26T22:12:49.837Z,100518.34
2023-04-26T22:15:20.662Z,100593.84
2023-04-26T22:17:49.951Z,100573.91
2023-04-26T22:20:19.161Z,100418.66
2023-04-26T22:22:48.513Z,100520.13
2023-04-26T22:25:17.744Z,100641.69
2023-04-26T22:27:46.820Z,100618.09
2023-04-26T22:30:25.336Z,100624.22
2023-04-26T22:32:58.735Z,100522.72
2023-04-26T22:35:29.271Z,100624.16
2023-04-26T22:37:58.503Z,100473.16
2023-04-26T22:40:27.665Z,100611.06
2023-04-26T22:42:56.798Z,100467.88
2023-04-26T22:45:26.422Z,100486.94
2023-04-26T22:47:57.309Z,100594.53
2023-04-26T22:50:26.710Z,100590.19
2023-04-26T22:52:56.271Z,100618.81
2023-04-26T22:55:25.618Z,100615.31
2023-04-26T22:57:54.885Z,100505.22
2023-04-26T23:00:25.795Z,100516.38
2023-04-26T23:02:56.758Z,100615.19
2023-04-26T23:05:26.005Z,100559.59
2023-04-26T23:08:13.381Z,100605.56
2023-04-26T23:11:17.930Z,100608.19
2023-04-26T23:13:49.317Z,100532.81
2023-04-26T23:16:18.524Z,100568.22
2023-04-26T23:18:49.292Z,100582.22
2023-04-26T23:21:18.517Z,100595.16
2023-04-26T23:24:24.579Z,100598.63
2023-04-26T23:26:53.846Z,100594.25
2023-04-26T23:29:23.042Z,100426.97
2023-04-26T23:31:52.255Z,100594.16
2023-04-26T23:34:23.147Z,100599.34
2023-04-26T23:36:52.300Z,100445.09
2023-04-26T23:39:21.494Z,100363.50
2023-04-26T23:41:50.685Z,100600.94
2023-04-26T23:44:19.855Z,100456.84
2023-04-26T23:47:06.160Z,100600.81
2023-04-26T23:49:36.871Z,100540.00
2023-04-26T23:52:24.386Z,100583.25
2023-04-26T23:54:53.544Z,100557.19
2023-04-26T23:57:22.829Z,100599.66
2023-04-26T23:59:53.120Z,100381.22
